Time,TemperatureF,DewpointF,PressureIn,WindDirection,WindDirectionDegrees,WindSpeedMPH,WindSpeedGustMPH,Humidity,HourlyPrecipIn,Conditions,Clouds,dailyrainin,SoftwareType,DateUTC
2013-01-15 00:03:00,8.2,-2.8,30.09,SSE,157,0.0,0.0,60,0.00,,---,0.00,VWS V14.01,2013-01-15 06:03:00,
2013-01-15 00:09:00,8.1,-2.9,30.09,SSE,157,0.0,0.0,60,0.00,,---,0.00,VWS V14.01,2013-01-15 06:09:00,
2013-01-15 00:14:00,8.2,-2.8,30.09,SSE,157,0.0,0.0,60,0.00,,---,0.00,VWS V14.01,2013-01-15 06:14:00,
2013-01-15 00:19:00,8.2,-2.8,30.09,SSE,156,0.0,0.0,60,0.00,,---,0.00,VWS V14.01,2013-01-15 06:19:00,
2013-01-15 00:24:00,8.2,-2.8,30.09,SSE,156,0.0,0.0,60,0.00,,---,0.00,VWS V14.01,2013-01-15 06:24:00,
2013-01-15 00:30:00,8.2,-2.8,30.09,SSE,157,0.0,0.0,60,0.00,,---,0.00,VWS V14.01,2013-01-15 06:30:00,
2013-01-15 00:35:00,8.2,-2.8,30.06,SSE,157,0.0,0.0,60,0.00,,---,0.00,VWS V14.01,2013-01-15 06:35:00,
2013-01-15 00:41:00,8.2,-2.8,30.06,SSE,157,0.0,0.0,60,0.00,,---,0.00,VWS V14.01,2013-01-15 06:41:00,
2013-01-15 00:46:00,8.2,-2.8,30.06,SSE,156,0.0,0.0,60,0.00,,---,0.00,VWS V14.01,2013-01-15 06:46:00,
2013-01-15 00:51:00,8.2,-2.8,30.09,SSE,157,0.0,0.0,60,0.00,,---,0.00,VWS V14.01,2013-01-15 06:51:00,
2013-01-15 00:56:00,8.2,-2.8,30.09,SSE,157,0.0,0.0,60,0.00,,---,0.00,VWS V14.01,2013-01-15 06:56:00,
2013-01-15 01:01:00,8.1,-2.9,30.09,SSE,157,0.0,0.0,60,0.00,,---,0.00,VWS V14.01,2013-01-15 07:01:00,
2013-01-15 01:06:00,8.1,-2.9,30.09,SSE,157,0.0,0.0,60,0.00,,---,0.00,VWS V14.01,2013-01-15 07:06:00,
2013-01-15 01:11:00,8.1,-2.9,30.09,SSE,157,0.0,0.0,60,0.00,,---,0.00,VWS V14.01,2013-01-15 07:11:00,
2013-01-15 01:16:00,8.1,-2.9,30.09,SSE,157,0.0,0.0,60,0.00,,---,0.00,VWS V14.01,2013-01-15 07:16:00,
2013-01-15 01:21:00,8.1,-2.9,30.09,SSE,157,0.0,0.0,60,0.00,,---,0.00,VWS V14.01,2013-01-15 07:21:00,
2013-01-15 01:26:00,8.1,-2.9,30.09,SSE,157,0.0,0.0,60,0.00,,---,0.00,VWS V14.01,2013-01-15 07:26:00,
2013-01-15 01:31:00,8.1,-2.9,30.09,SSE,157,0.0,0.0,60,0.00,,---,0.00,VWS V14.01,2013-01-15 07:31:00,
2013-01-15 01:36:00,7.9,-3.1,30.06,SSE,157,0.0,0.0,60,0.00,,---,0.00,VWS V14.01,2013-01-15 07:36:00,
2013-01-15 01:41:00,7.9,-3.1,30.06,SSE,157,0.0,0.0,60,0.00,,---,0.00,VWS V14.01,2013-01-15 07:41:00,
2013-01-15 01:46:00,7.9,-3.1,30.06,SSE,157,0.0,0.0,60,0.00,,---,0.00,VWS V14.01,2013-01-15 07:46:00,
2013-01-15 01:51:00,7.9,-3.1,30.06,SSE,157,0.0,0.0,60,0.00,,---,0.00,VWS V14.01,2013-01-15 07:51:00,
2013-01-15 01:56:00,7.9,-3.1,30.06,SSE,157,0.0,0.0,60,0.00,,---,0.00,VWS V14.01,2013-01-15 07:56:00,
2013-01-15 02:01:00,7.9,-3.1,30.06,SSE,157,0.0,0.0,60,0.00,,---,0.00,VWS V14.01,2013-01-15 08:01:00,
2013-01-15 02:06:00,7.9,-3.1,30.06,SSE,156,0.0,0.0,60,0.00,,---,0.00,VWS V14.01,2013-01-15 08:06:00,
2013-01-15 02:12:00,7.7,-3.3,30.06,SSE,156,0.0,0.0,60,0.00,,---,0.00,VWS V14.01,2013-01-15 08:12:00,
2013-01-15 02:18:00,7.7,-3.3,30.06,SSE,157,0.0,0.0,60,0.00,,---,0.00,VWS V14.01,2013-01-15 08:18:00,
2013-01-15 02:24:00,7.7,-3.3,30.06,SSE,156,0.0,0.0,60,0.00,,---,0.00,VWS V14.01,2013-01-15 08:24:00,
2013-01-15 02:29:00,7.7,-3.3,30.06,SSE,157,0.0,0.0,60,0.00,,---,0.00,VWS V14.01,2013-01-15 08:29:00,
2013-01-15 02:35:00,7.5,-3.5,30.09,SSE,157,0.0,0.0,60,0.00,,---,0.00,VWS V14.01,2013-01-15 08:35:00,
2013-01-15 02:40:00,7.5,-3.5,30.09,SSE,157,0.0,0.0,60,0.00,,---,0.00,VWS V14.01,2013-01-15 08:40:00,
2013-01-15 02:46:00,7.5,-3.5,30.09,SSE,157,0.0,0.0,60,0.00,,---,0.00,VWS V14.01,2013-01-15 08:46:00,
2013-01-15 02:52:00,7.3,-3.6,30.09,SSE,157,0.0,0.0,60,0.00,,---,0.00,VWS V14.01,2013-01-15 08:52:00,
2013-01-15 02:57:00,7.3,-3.6,30.09,SSE,157,0.0,0.0,60,0.00,,---,0.00,VWS V14.01,2013-01-15 08:57:00,
2013-01-15 03:03:00,7.3,-3.6,30.09,SSE,157,0.0,0.0,60,0.00,,---,0.00,VWS V14.01,2013-01-15 09:03:00,
2013-01-15 03:08:00,7.3,-3.6,30.09,SSE,157,0.0,0.0,60,0.00,,---,0.00,VWS V14.01,2013-01-15 09:08:00,
2013-01-15 03:13:00,7.3,-3.6,30.09,SSE,157,0.0,0.0,60,0.00,,---,0.00,VWS V14.01,2013-01-15 09:13:00,
2013-01-15 03:18:00,7.3,-3.6,30.09,SSE,157,0.0,0.0,60,0.00,,---,0.00,VWS V14.01,2013-01-15 09:18:00,
2013-01-15 03:24:00,7.3,-3.6,30.09,SSE,157,0.0,0.0,60,0.00,,---,0.00,VWS V14.01,2013-01-15 09:24:00,
2013-01-15 03:29:00,7.5,-3.5,30.09,SSE,157,0.0,0.0,60,0.00,,---,0.00,VWS V14.01,2013-01-15 09:29:00,
2013-01-15 03:34:00,7.5,-3.5,30.06,SSE,157,0.0,0.0,60,0.00,,---,0.00,VWS V14.01,2013-01-15 09:34:00,
2013-01-15 03:40:00,7.5,-3.5,30.06,SSE,157,0.0,0.0,60,0.00,,---,0.00,VWS V14.01,2013-01-15 09:40:00,
2013-01-15 03:46:00,7.5,-3.5,30.06,SSE,157,0.0,0.0,60,0.00,,---,0.00,VWS V14.01,2013-01-15 09:46:00,
2013-01-15 03:51:00,7.5,-3.5,30.06,SSE,157,0.0,0.0,60,0.00,,---,0.00,VWS V14.01,2013-01-15 09:51:00,
2013-01-15 03:57:00,7.5,-3.5,30.06,SSE,157,0.0,0.0,60,0.00,,---,0.00,VWS V14.01,2013-01-15 09:57:00,
2013-01-15 04:02:00,7.5,-3.5,30.06,SSE,157,0.0,0.0,60,0.00,,---,0.00,VWS V14.01,2013-01-15 10:02:00,
2013-01-15 04:08:00,7.5,-3.5,30.06,SSE,157,0.0,0.0,60,0.00,,---,0.00,VWS V14.01,2013-01-15 10:08:00,
2013-01-15 04:14:00,7.5,-3.5,30.06,SSE,157,0.0,0.0,60,0.00,,---,0.00,VWS V14.01,2013-01-15 10:14:00,
2013-01-15 04:19:00,7.5,-3.5,30.06,SSE,159,0.0,0.0,60,0.00,,---,0.00,VWS V14.01,2013-01-15 10:19:00,
2013-01-15 04:24:00,7.5,-3.5,30.06,SSE,159,0.0,0.0,60,0.00,,---,0.00,VWS V14.01,2013-01-15 10:24:00,
2013-01-15 04:29:00,7.5,-3.5,30.06,SSE,159,0.0,0.0,60,0.00,,---,0.00,VWS V14.01,2013-01-15 10:29:00,
2013-01-15 04:34:00,7.3,-3.6,30.03,SSE,159,0.0,0.0,60,0.00,,---,0.00,VWS V14.01,2013-01-15 10:34:00,
2013-01-15 04:40:00,7.2,-3.8,30.03,SSE,159,0.0,0.0,60,0.00,,---,0.00,VWS V14.01,2013-01-15 10:40:00,
2013-01-15 04:45:00,7.2,-3.8,30.03,SSE,159,0.0,0.0,60,0.00,,---,0.00,VWS V14.01,2013-01-15 10:45:00,
2013-01-15 04:50:00,7.0,-4.0,30.03,SSE,159,0.0,0.0,60,0.00,,---,0.00,VWS V14.01,2013-01-15 10:50:00,
2013-01-15 04:55:00,7.0,-4.0,30.03,SSE,159,0.0,0.0,60,0.00,,---,0.00,VWS V14.01,2013-01-15 10:55:00,
2013-01-15 05:00:00,7.0,-4.0,30.03,SSE,159,0.0,0.0,60,0.00,,---,0.00,VWS V14.01,2013-01-15 11:00:00,
2013-01-15 05:06:00,6.8,-4.1,30.03,SSE,159,0.0,0.0,60,0.00,,---,0.00,VWS V14.01,2013-01-15 11:06:00,
2013-01-15 05:11:00,6.8,-4.1,30.03,SSE,159,0.0,0.0,60,0.00,,---,0.00,VWS V14.01,2013-01-15 11:11:00,
2013-01-15 05:16:00,6.6,-4.3,30.03,SSE,159,0.0,0.0,60,0.00,,---,0.00,VWS V14.01,2013-01-15 11:16:00,
2013-01-15 05:21:00,6.4,-4.5,30.03,SSE,159,0.0,0.0,60,0.00,,---,0.00,VWS V14.01,2013-01-15 11:21:00,
2013-01-15 05:26:00,6.3,-4.6,30.03,SSE,159,0.0,0.0,60,0.00,,---,0.00,VWS V14.01,2013-01-15 11:26:00,
2013-01-15 05:32:00,6.1,-4.8,30.03,SSE,159,0.0,0.0,60,0.00,,---,0.00,VWS V14.01,2013-01-15 11:32:00,
2013-01-15 05:37:00,5.9,-5.0,30.03,SSE,159,0.0,0.0,60,0.00,,---,0.00,VWS V14.01,2013-01-15 11:37:00,
2013-01-15 05:42:00,5.5,-5.3,30.03,SSE,159,0.0,0.0,60,0.00,,---,0.00,VWS V14.01,2013-01-15 11:42:00,
2013-01-15 05:47:00,5.4,-5.5,30.03,SSE,159,0.0,0.0,60,0.00,,---,0.00,VWS V14.01,2013-01-15 11:47:00,
2013-01-15 05:52:00,5.0,-5.8,30.03,SSE,159,0.0,0.0,60,0.00,,---,0.00,VWS V14.01,2013-01-15 11:52:00,
2013-01-15 05:57:00,4.8,-6.0,30.03,SSE,159,0.0,0.0,60,0.00,,---,0.00,VWS V14.01,2013-01-15 11:57:00,
2013-01-15 06:02:00,4.5,-6.3,30.03,SSE,159,0.0,0.0,60,0.00,,---,0.00,VWS V14.01,2013-01-15 12:02:00,
2013-01-15 06:07:00,4.5,-6.3,30.03,SSE,159,0.0,0.0,60,0.00,,---,0.00,VWS V14.01,2013-01-15 12:07:00,
2013-01-15 06:12:00,4.1,-6.7,30.03,SSE,159,0.0,0.0,60,0.00,,---,0.00,VWS V14.01,2013-01-15 12:12:00,
2013-01-15 06:17:00,3.7,-7.0,30.03,SSE,159,0.0,0.0,60,0.00,,---,0.00,VWS V14.01,2013-01-15 12:17:00,
2013-01-15 06:24:00,3.4,-7.4,30.03,SSE,159,0.0,0.0,60,0.00,,---,0.00,VWS V14.01,2013-01-15 12:24:00,
2013-01-15 06:29:00,3.0,-7.7,30.03,SSE,159,0.0,0.0,60,0.00,,---,0.00,VWS V14.01,2013-01-15 12:29:00,
2013-01-15 06:34:00,2.7,-8.1,30.03,SSE,159,0.0,0.0,60,0.00,,---,0.00,VWS V14.01,2013-01-15 12:34:00,
2013-01-15 06:39:00,2.5,-8.2,30.03,SSE,159,0.0,0.0,60,0.00,,---,0.00,VWS V14.01,2013-01-15 12:39:00,
2013-01-15 06:45:00,2.5,-8.2,30.03,SSE,159,0.0,0.0,60,0.00,,---,0.00,VWS V14.01,2013-01-15 12:45:00,
2013-01-15 06:50:00,2.7,-8.1,30.06,SSE,159,0.0,0.0,60,0.00,,---,0.00,VWS V14.01,2013-01-15 12:50:00,
2013-01-15 06:56:00,3.0,-7.7,30.06,SSE,159,0.0,0.0,60,0.00,,---,0.00,VWS V14.01,2013-01-15 12:56:00,
2013-01-15 07:02:00,3.4,-7.4,30.06,SSE,159,0.0,0.0,60,0.00,,---,0.00,VWS V14.01,2013-01-15 13:02:00,
2013-01-15 07:07:00,3.7,-7.0,30.06,SSE,159,0.0,0.0,60,0.00,,---,0.00,VWS V14.01,2013-01-15 13:07:00,
2013-01-15 07:12:00,3.7,-7.0,30.06,SSE,159,0.0,0.0,60,0.00,,---,0.00,VWS V14.01,2013-01-15 13:12:00,
2013-01-15 07:18:00,4.1,-6.7,30.06,SSE,159,0.0,0.0,60,0.00,,---,0.00,VWS V14.01,2013-01-15 13:18:00,
2013-01-15 07:24:00,4.1,-6.7,30.06,SSE,159,0.0,0.0,60,0.00,,---,0.00,VWS V14.01,2013-01-15 13:24:00,
2013-01-15 07:30:00,4.3,-6.5,30.06,SSE,159,0.0,0.0,60,0.00,,---,0.00,VWS V14.01,2013-01-15 13:30:00,
2013-01-15 07:36:00,4.5,-6.3,30.06,SSE,159,0.0,0.0,60,0.00,,---,0.00,VWS V14.01,2013-01-15 13:36:00,
2013-01-15 07:41:00,4.5,-6.3,30.06,SSE,159,0.0,0.0,60,0.00,,---,0.00,VWS V14.01,2013-01-15 13:41:00,
2013-01-15 07:46:00,4.6,-6.2,30.06,SSE,159,0.0,0.0,60,0.00,,---,0.00,VWS V14.01,2013-01-15 13:46:00,
2013-01-15 07:52:00,4.8,-6.0,30.03,SSE,159,0.0,0.0,60,0.00,,---,0.00,VWS V14.01,2013-01-15 13:52:00,
2013-01-15 07:58:00,5.0,-5.8,30.03,SSE,159,0.0,0.0,60,0.00,,---,0.00,VWS V14.01,2013-01-15 13:58:00,
2013-01-15 08:03:00,5.0,-5.8,30.06,SSE,159,0.0,0.0,60,0.00,,---,0.00,VWS V14.01,2013-01-15 14:03:00,
2013-01-15 08:09:00,5.0,-5.8,30.06,SSE,159,0.0,0.0,60,0.00,,---,0.00,VWS V14.01,2013-01-15 14:09:00,
2013-01-15 08:15:00,5.0,-5.8,30.06,SSE,159,0.0,0.0,60,0.00,,---,0.00,VWS V14.01,2013-01-15 14:15:00,
2013-01-15 08:20:00,5.0,-5.8,30.06,SSE,159,0.0,0.0,60,0.00,,---,0.00,VWS V14.01,2013-01-15 14:20:00,
2013-01-15 08:25:00,5.0,-5.8,30.06,SSE,159,0.0,0.0,60,0.00,,---,0.00,VWS V14.01,2013-01-15 14:25:00,
2013-01-15 08:30:00,5.0,-5.8,30.06,SSE,159,0.0,0.0,60,0.00,,---,0.00,VWS V14.01,2013-01-15 14:30:00,
2013-01-15 08:36:00,5.0,-5.8,30.06,SSE,159,0.0,0.0,60,0.00,,---,0.00,VWS V14.01,2013-01-15 14:36:00,
2013-01-15 08:41:00,5.2,-5.7,30.06,SSE,159,0.0,0.0,60,0.00,,---,0.00,VWS V14.01,2013-01-15 14:41:00,
2013-01-15 08:47:00,5.4,-5.5,30.06,SSE,159,0.0,0.0,60,0.00,,---,0.00,VWS V14.01,2013-01-15 14:47:00,
2013-01-15 08:52:00,5.5,-5.3,30.06,SSE,159,0.0,0.0,60,0.00,,---,0.00,VWS V14.01,2013-01-15 14:52:00,
2013-01-15 08:58:00,5.7,-5.2,30.06,SSE,159,0.0,0.0,60,0.00,,---,0.00,VWS V14.01,2013-01-15 14:58:00,
2013-01-15 09:03:00,5.9,-5.0,30.03,SSE,159,0.0,0.0,60,0.00,,---,0.00,VWS V14.01,2013-01-15 15:03:00,
2013-01-15 09:09:00,6.3,-4.6,30.03,SSE,159,0.0,0.0,60,0.00,,---,0.00,VWS V14.01,2013-01-15 15:09:00,
2013-01-15 09:14:00,6.4,-4.5,30.03,SSE,159,0.0,0.0,60,0.00,,---,0.00,VWS V14.01,2013-01-15 15:14:00,
2013-01-15 09:20:00,6.8,-4.1,30.03,SSE,159,0.0,0.0,60,0.00,,---,0.00,VWS V14.01,2013-01-15 15:20:00,
2013-01-15 09:26:00,7.0,-4.0,30.03,SSE,159,0.0,0.0,60,0.00,,---,0.00,VWS V14.01,2013-01-15 15:26:00,
2013-01-15 09:32:00,7.2,-3.8,30.03,SSE,159,0.0,0.0,60,0.00,,---,0.00,VWS V14.01,2013-01-15 15:32:00,
2013-01-15 09:38:00,7.5,-3.5,30.03,SSE,159,0.0,0.0,60,0.00,,---,0.00,VWS V14.01,2013-01-15 15:38:00,
2013-01-15 09:43:00,7.7,-3.3,30.03,SSE,159,0.0,0.0,60,0.00,,---,0.00,VWS V14.01,2013-01-15 15:43:00,
2013-01-15 09:49:00,8.1,-2.9,30.03,SSE,159,0.0,0.0,60,0.00,,---,0.00,VWS V14.01,2013-01-15 15:49:00,
2013-01-15 09:54:00,8.4,-2.6,30.03,SSE,159,0.0,0.0,60,0.00,,---,0.00,VWS V14.01,2013-01-15 15:54:00,
2013-01-15 09:59:00,8.6,-2.4,30.03,SSE,159,0.0,0.0,60,0.00,,---,0.00,VWS V14.01,2013-01-15 15:59:00,
2013-01-15 10:04:00,9.1,-1.9,30.03,SSE,159,0.0,0.0,60,0.00,,---,0.00,VWS V14.01,2013-01-15 16:04:00,
2013-01-15 10:10:00,9.5,-1.6,30.03,SSE,160,0.0,0.0,60,0.00,,---,0.00,VWS V14.01,2013-01-15 16:10:00,
2013-01-15 10:15:00,9.9,-1.2,30.03,SSE,160,0.0,0.0,60,0.00,,---,0.00,VWS V14.01,2013-01-15 16:15:00,
2013-01-15 10:21:00,10.2,-0.9,30.03,SSE,159,0.0,0.0,60,0.00,,---,0.00,VWS V14.01,2013-01-15 16:21:00,
2013-01-15 10:26:00,10.8,-0.4,30.03,SSE,159,0.0,0.0,60,0.00,,---,0.00,VWS V14.01,2013-01-15 16:26:00,
2013-01-15 10:32:00,11.1,0.0,30.03,SSE,150,0.0,0.0,60,0.00,,---,0.00,VWS V14.01,2013-01-15 16:32:00,
2013-01-15 10:37:00,11.5,0.3,30.00,SSE,156,0.0,0.0,60,0.00,,---,0.00,VWS V14.01,2013-01-15 16:37:00,
2013-01-15 10:43:00,12.0,0.8,30.00,SE,145,0.0,0.0,60,0.00,,---,0.00,VWS V14.01,2013-01-15 16:43:00,
2013-01-15 10:48:00,12.4,1.1,30.00,SSE,154,0.0,0.0,60,0.00,,---,0.00,VWS V14.01,2013-01-15 16:48:00,
2013-01-15 10:54:00,12.7,1.5,30.00,SE,138,0.0,0.0,60,0.00,,---,0.00,VWS V14.01,2013-01-15 16:54:00,
2013-01-15 10:59:00,13.3,2.0,30.00,SE,145,0.0,0.0,60,0.00,,---,0.00,VWS V14.01,2013-01-15 16:59:00,
2013-01-15 11:04:00,13.6,2.3,30.00,ESE,109,0.0,0.0,60,0.00,,---,0.00,VWS V14.01,2013-01-15 17:04:00,
2013-01-15 11:10:00,14.2,-2.3,30.00,SSE,151,0.0,0.0,47,0.00,,---,0.00,VWS V14.01,2013-01-15 17:10:00,
2013-01-15 11:15:00,14.5,-2.0,30.00,SSE,156,0.0,0.0,47,0.00,,---,0.00,VWS V14.01,2013-01-15 17:15:00,
2013-01-15 11:21:00,15.1,-2.0,30.00,SSE,162,0.0,0.0,46,0.00,,---,0.00,VWS V14.01,2013-01-15 17:21:00,
2013-01-15 11:26:00,15.8,-0.9,30.00,SSE,160,0.0,0.0,47,0.00,,---,0.00,VWS V14.01,2013-01-15 17:26:00,
2013-01-15 11:31:00,16.7,-0.5,30.00,SSE,167,0.0,0.0,46,0.00,,---,0.00,VWS V14.01,2013-01-15 17:31:00,
2013-01-15 11:36:00,17.2,-0.4,29.97,SE,132,0.0,0.0,45,0.00,,---,0.00,VWS V14.01,2013-01-15 17:36:00,
2013-01-15 11:41:00,17.6,-0.1,29.97,SE,141,0.0,0.0,45,0.00,,---,0.00,VWS V14.01,2013-01-15 17:41:00,
2013-01-15 11:46:00,18.1,-0.1,29.97,SSE,164,0.0,0.0,44,0.00,,---,0.00,VWS V14.01,2013-01-15 17:46:00,
2013-01-15 11:52:00,18.1,-0.1,29.97,SE,126,0.0,0.0,44,0.00,,---,0.00,VWS V14.01,2013-01-15 17:52:00,
2013-01-15 11:57:00,18.3,-0.4,29.97,ESE,115,0.0,0.0,43,0.00,,---,0.00,VWS V14.01,2013-01-15 17:57:00,
2013-01-15 12:02:00,18.7,-0.1,29.94,SSE,166,0.0,0.0,43,0.00,,---,0.00,VWS V14.01,2013-01-15 18:02:00,
2013-01-15 12:07:00,19.6,0.7,29.94,SSE,159,0.0,0.0,43,0.00,,---,0.00,VWS V14.01,2013-01-15 18:07:00,
2013-01-15 12:13:00,20.3,0.9,29.94,ENE,65,0.0,0.0,42,0.00,,---,0.00,VWS V14.01,2013-01-15 18:13:00,
2013-01-15 12:19:00,20.3,0.9,29.94,SSE,152,0.0,0.0,42,0.00,,---,0.00,VWS V14.01,2013-01-15 18:19:00,
2013-01-15 12:24:00,20.5,0.5,29.94,SSE,149,0.0,0.0,41,0.00,,---,0.00,VWS V14.01,2013-01-15 18:24:00,
2013-01-15 12:29:00,20.7,0.2,29.94,ESE,118,0.0,0.0,40,0.00,,---,0.00,VWS V14.01,2013-01-15 18:29:00,
2013-01-15 12:34:00,20.7,-0.4,29.94,SSE,163,0.0,0.0,39,0.00,,---,0.00,VWS V14.01,2013-01-15 18:34:00,
2013-01-15 12:40:00,21.2,0.1,29.94,SSE,166,0.0,0.0,39,0.00,,---,0.00,VWS V14.01,2013-01-15 18:40:00,
2013-01-15 12:45:00,21.7,0.1,29.94,SSE,154,0.0,0.0,38,0.00,,---,0.00,VWS V14.01,2013-01-15 18:45:00,
2013-01-15 12:50:00,22.3,0.5,29.94,SSE,159,0.0,0.0,38,0.00,,---,0.00,VWS V14.01,2013-01-15 18:50:00,
2013-01-15 12:56:00,22.8,-0.1,29.94,SE,128,0.0,0.0,36,0.00,,---,0.00,VWS V14.01,2013-01-15 18:56:00,
2013-01-15 13:02:00,23.0,0.0,29.91,SSE,161,0.0,0.0,36,0.00,,---,0.00,VWS V14.01,2013-01-15 19:02:00,
2013-01-15 13:07:00,23.4,-0.2,29.91,SSE,152,0.0,0.0,35,0.00,,---,0.00,VWS V14.01,2013-01-15 19:07:00,
2013-01-15 13:13:00,23.5,-0.1,29.91,SSE,159,0.0,0.0,35,0.00,,---,0.00,VWS V14.01,2013-01-15 19:13:00,
2013-01-15 13:18:00,23.7,0.1,29.88,ENE,59,0.0,0.0,35,0.00,,---,0.00,VWS V14.01,2013-01-15 19:18:00,
2013-01-15 13:24:00,24.1,0.4,29.88,SSE,150,0.0,0.0,35,0.00,,---,0.00,VWS V14.01,2013-01-15 19:24:00,
2013-01-15 13:29:00,24.4,0.7,29.88,SSE,159,0.0,0.0,35,0.00,,---,0.00,VWS V14.01,2013-01-15 19:29:00,
2013-01-15 13:34:00,24.6,0.9,29.91,SW,216,0.0,0.0,35,0.00,,---,0.00,VWS V14.01,2013-01-15 19:34:00,
2013-01-15 13:39:00,24.8,1.0,29.91,SE,128,0.0,0.0,35,0.00,,---,0.00,VWS V14.01,2013-01-15 19:39:00,
2013-01-15 13:44:00,24.8,0.4,29.91,South,177,0.0,0.0,34,0.00,,---,0.00,VWS V14.01,2013-01-15 19:44:00,
2013-01-15 13:49:00,25.0,0.6,29.88,SSW,206,0.0,0.0,34,0.00,,---,0.00,VWS V14.01,2013-01-15 19:49:00,
2013-01-15 13:55:00,24.8,0.4,29.88,SSW,201,0.0,0.0,34,0.00,,---,0.00,VWS V14.01,2013-01-15 19:55:00,
2013-01-15 14:01:00,24.6,0.3,29.88,South,178,0.0,0.0,34,0.00,,---,0.00,VWS V14.01,2013-01-15 20:01:00,
2013-01-15 14:06:00,24.4,0.1,29.88,SSE,152,0.0,0.0,34,0.00,,---,0.00,VWS V14.01,2013-01-15 20:06:00,
2013-01-15 14:11:00,24.4,0.1,29.88,SSE,168,0.0,0.0,34,0.00,,---,0.00,VWS V14.01,2013-01-15 20:11:00,
2013-01-15 14:17:00,24.6,-0.4,29.88,SSE,163,0.0,0.0,33,0.00,,---,0.00,VWS V14.01,2013-01-15 20:17:00,
2013-01-15 14:22:00,24.6,-0.4,29.88,South,172,0.0,0.0,33,0.00,,---,0.00,VWS V14.01,2013-01-15 20:22:00,
2013-01-15 14:27:00,24.8,-0.2,29.88,SSW,196,0.0,0.0,33,0.00,,---,0.00,VWS V14.01,2013-01-15 20:27:00,
2013-01-15 14:32:00,25.3,0.3,29.88,SSW,207,0.0,0.0,33,0.00,,---,0.00,VWS V14.01,2013-01-15 20:32:00,
2013-01-15 14:37:00,25.3,0.3,29.88,South,170,0.0,0.0,33,0.00,,---,0.00,VWS V14.01,2013-01-15 20:37:00,
2013-01-15 14:43:00,25.5,0.4,29.88,SE,137,0.0,0.0,33,0.00,,---,0.00,VWS V14.01,2013-01-15 20:43:00,
2013-01-15 14:49:00,26.1,0.9,29.88,SE,145,0.0,0.0,33,0.00,,---,0.00,VWS V14.01,2013-01-15 20:49:00,
2013-01-15 14:54:00,26.2,1.1,29.88,ESE,121,0.0,0.0,33,0.00,,---,0.00,VWS V14.01,2013-01-15 20:54:00,
2013-01-15 15:00:00,26.6,0.7,29.88,SSW,192,0.0,0.0,32,0.00,,---,0.00,VWS V14.01,2013-01-15 21:00:00,
2013-01-15 15:06:00,26.6,0.7,29.88,SE,142,0.0,0.0,32,0.00,,---,0.00,VWS V14.01,2013-01-15 21:06:00,
2013-01-15 15:11:00,26.2,0.4,29.88,South,178,0.0,0.0,32,0.00,,---,0.00,VWS V14.01,2013-01-15 21:11:00,
2013-01-15 15:17:00,25.9,0.1,29.88,SSE,150,0.0,0.0,32,0.00,,---,0.00,VWS V14.01,2013-01-15 21:17:00,
2013-01-15 15:23:00,25.5,-0.2,29.88,SSE,158,0.0,0.0,32,0.00,,---,0.00,VWS V14.01,2013-01-15 21:23:00,
2013-01-15 15:28:00,25.5,-0.2,29.88,SE,126,0.0,0.0,32,0.00,,---,0.00,VWS V14.01,2013-01-15 21:28:00,
2013-01-15 15:33:00,25.5,-0.2,29.88,South,181,0.0,0.0,32,0.00,,---,0.00,VWS V14.01,2013-01-15 21:33:00,
2013-01-15 15:38:00,25.3,-0.4,29.88,South,191,0.0,0.0,32,0.00,,---,0.00,VWS V14.01,2013-01-15 21:38:00,
2013-01-15 15:44:00,25.2,-0.5,29.88,South,175,0.0,0.0,32,0.00,,---,0.00,VWS V14.01,2013-01-15 21:44:00,
2013-01-15 15:49:00,25.0,-0.7,29.85,South,185,0.0,0.0,32,0.00,,---,0.00,VWS V14.01,2013-01-15 21:49:00,
2013-01-15 15:54:00,24.8,-0.2,29.85,SSE,147,0.0,0.0,33,0.00,,---,0.00,VWS V14.01,2013-01-15 21:54:00,
2013-01-15 15:59:00,24.6,-0.4,29.85,SSE,157,0.0,0.0,33,0.00,,---,0.00,VWS V14.01,2013-01-15 21:59:00,
2013-01-15 16:05:00,24.4,-0.5,29.85,South,169,0.0,0.0,33,0.00,,---,0.00,VWS V14.01,2013-01-15 22:05:00,
2013-01-15 16:10:00,24.1,-1.5,29.85,SSW,207,0.0,0.0,32,0.00,,---,0.00,VWS V14.01,2013-01-15 22:10:00,
2013-01-15 16:16:00,23.7,-1.2,29.85,SE,143,0.0,0.0,33,0.00,,---,0.00,VWS V14.01,2013-01-15 22:16:00,
2013-01-15 16:21:00,23.5,-1.3,29.88,SE,133,0.0,0.0,33,0.00,,---,0.00,VWS V14.01,2013-01-15 22:21:00,
2013-01-15 16:26:00,23.5,-1.3,29.88,SE,134,0.0,0.0,33,0.00,,---,0.00,VWS V14.01,2013-01-15 22:26:00,
2013-01-15 16:31:00,23.2,-1.6,29.88,SSE,166,0.0,0.0,33,0.00,,---,0.00,VWS V14.01,2013-01-15 22:31:00,
2013-01-15 16:37:00,22.8,-2.0,29.85,South,171,0.0,0.0,33,0.00,,---,0.00,VWS V14.01,2013-01-15 22:37:00,
2013-01-15 16:43:00,22.5,-2.3,29.85,South,169,0.0,0.0,33,0.00,,---,0.00,VWS V14.01,2013-01-15 22:43:00,
2013-01-15 16:48:00,21.9,-2.8,29.85,SE,128,0.0,0.0,33,0.00,,---,0.00,VWS V14.01,2013-01-15 22:48:00,
2013-01-15 16:53:00,21.4,-3.2,29.85,SSE,156,0.0,0.0,33,0.00,,---,0.00,VWS V14.01,2013-01-15 22:53:00,
2013-01-15 16:58:00,21.2,-2.8,29.85,South,173,0.0,0.0,34,0.00,,---,0.00,VWS V14.01,2013-01-15 22:58:00,
2013-01-15 17:04:00,20.7,-3.3,29.85,SE,146,0.0,0.0,34,0.00,,---,0.00,VWS V14.01,2013-01-15 23:04:00,
2013-01-15 17:09:00,20.1,-3.7,29.85,SSE,166,0.0,0.0,34,0.00,,---,0.00,VWS V14.01,2013-01-15 23:09:00,
2013-01-15 17:15:00,19.8,-3.5,29.85,SE,133,0.0,0.0,35,0.00,,---,0.00,VWS V14.01,2013-01-15 23:15:00,
2013-01-15 17:20:00,19.4,-3.2,29.85,ENE,68,0.0,0.0,36,0.00,,---,0.00,VWS V14.01,2013-01-15 23:20:00,
2013-01-15 17:26:00,19.2,-3.3,29.85,SSE,160,0.0,0.0,36,0.00,,---,0.00,VWS V14.01,2013-01-15 23:26:00,
2013-01-15 17:31:00,18.9,-3.1,29.85,SSW,192,0.0,0.0,37,0.00,,---,0.00,VWS V14.01,2013-01-15 23:31:00,
2013-01-15 17:36:00,18.5,-3.4,29.85,SE,127,0.0,0.0,37,0.00,,---,0.00,VWS V14.01,2013-01-15 23:36:00,
2013-01-15 17:42:00,18.3,-3.6,29.85,South,182,0.0,0.0,37,0.00,,---,0.00,VWS V14.01,2013-01-15 23:42:00,
2013-01-15 17:47:00,18.0,-3.3,29.85,SW,236,0.0,0.0,38,0.00,,---,0.00,VWS V14.01,2013-01-15 23:47:00,
2013-01-15 17:53:00,17.8,-3.0,29.85,SE,131,0.0,0.0,39,0.00,,---,0.00,VWS V14.01,2013-01-15 23:53:00,
2013-01-15 17:58:00,17.8,-2.4,29.85,SSE,153,0.0,0.0,40,0.00,,---,0.00,VWS V14.01,2013-01-15 23:58:00,
2013-01-15 18:03:00,17.6,-2.1,29.83,SSE,149,0.0,0.0,41,0.00,,---,0.00,VWS V14.01,2013-01-16 00:03:00,
2013-01-15 18:08:00,17.8,-1.9,29.83,South,175,0.0,0.0,41,0.00,,---,0.00,VWS V14.01,2013-01-16 00:08:00,
2013-01-15 18:14:00,17.6,-1.6,29.83,SE,142,0.0,0.0,42,0.00,,---,0.00,VWS V14.01,2013-01-16 00:14:00,
2013-01-15 18:20:00,17.6,-1.1,29.83,SSE,161,0.0,0.0,43,0.00,,---,0.00,VWS V14.01,2013-01-16 00:20:00,
2013-01-15 18:25:00,17.4,-1.2,29.83,East,96,0.0,0.0,43,0.00,,---,0.00,VWS V14.01,2013-01-16 00:25:00,
2013-01-15 18:32:00,17.4,-1.2,29.83,SSE,165,0.0,0.0,43,0.00,,---,0.00,VWS V14.01,2013-01-16 00:32:00,
2013-01-15 18:37:00,17.4,-0.8,29.83,SSE,150,0.0,0.0,44,0.00,,---,0.00,VWS V14.01,2013-01-16 00:37:00,
2013-01-15 18:43:00,17.4,-0.8,29.83,South,175,0.0,0.0,44,0.00,,---,0.00,VWS V14.01,2013-01-16 00:43:00,
2013-01-15 18:48:00,17.4,-0.8,29.83,SE,146,0.0,0.0,44,0.00,,---,0.00,VWS V14.01,2013-01-16 00:48:00,
2013-01-15 18:53:00,17.6,-0.6,29.83,SE,137,0.0,0.0,44,0.00,,---,0.00,VWS V14.01,2013-01-16 00:53:00,
2013-01-15 18:58:00,17.6,-0.6,29.83,SSE,149,0.0,0.0,44,0.00,,---,0.00,VWS V14.01,2013-01-16 00:58:00,
2013-01-15 19:04:00,17.6,-0.1,29.80,SSE,160,0.0,0.0,45,0.00,,---,0.00,VWS V14.01,2013-01-16 01:04:00,
2013-01-15 19:09:00,17.6,-0.1,29.80,SSE,166,0.0,0.0,45,0.00,,---,0.00,VWS V14.01,2013-01-16 01:09:00,
2013-01-15 19:15:00,17.6,0.3,29.80,SSE,147,0.0,0.0,46,0.00,,---,0.00,VWS V14.01,2013-01-16 01:15:00,
2013-01-15 19:21:00,17.6,0.3,29.77,SSE,165,0.0,0.0,46,0.00,,---,0.00,VWS V14.01,2013-01-16 01:21:00,
2013-01-15 19:26:00,17.8,0.5,29.77,SSE,166,0.0,0.0,46,0.00,,---,0.00,VWS V14.01,2013-01-16 01:26:00,
2013-01-15 19:32:00,18.0,0.7,29.77,SE,129,0.0,0.0,46,0.00,,---,0.00,VWS V14.01,2013-01-16 01:32:00,
2013-01-15 19:38:00,18.1,0.9,29.77,SSE,159,0.0,0.0,46,0.00,,---,0.00,VWS V14.01,2013-01-16 01:38:00,
2013-01-15 19:43:00,18.1,0.9,29.77,SSE,167,0.0,0.0,46,0.00,,---,0.00,VWS V14.01,2013-01-16 01:43:00,
2013-01-15 19:48:00,18.1,0.9,29.77,SSE,163,0.0,0.0,46,0.00,,---,0.00,VWS V14.01,2013-01-16 01:48:00,
2013-01-15 19:53:00,18.1,0.9,29.77,South,187,0.0,0.0,46,0.00,,---,0.00,VWS V14.01,2013-01-16 01:53:00,
2013-01-15 19:59:00,18.1,0.9,29.77,SSE,164,0.0,0.0,46,0.00,,---,0.00,VWS V14.01,2013-01-16 01:59:00,
2013-01-15 20:04:00,18.1,0.9,29.77,South,171,0.0,0.0,46,0.00,,---,0.00,VWS V14.01,2013-01-16 02:04:00,
2013-01-15 20:09:00,18.1,0.9,29.77,South,178,0.0,0.0,46,0.00,,---,0.00,VWS V14.01,2013-01-16 02:09:00,
2013-01-15 20:14:00,18.1,0.9,29.77,SSE,168,0.0,0.0,46,0.00,,---,0.00,VWS V14.01,2013-01-16 02:14:00,
2013-01-15 20:19:00,18.3,1.0,29.74,SE,127,0.0,0.0,46,0.00,,---,0.00,VWS V14.01,2013-01-16 02:19:00,
2013-01-15 20:25:00,18.1,0.9,29.74,SSE,164,0.0,0.0,46,0.00,,---,0.00,VWS V14.01,2013-01-16 02:25:00,
2013-01-15 20:30:00,18.3,1.0,29.74,SSE,154,0.0,0.0,46,0.00,,---,0.00,VWS V14.01,2013-01-16 02:30:00,
2013-01-15 20:36:00,18.3,1.0,29.74,SE,131,0.0,0.0,46,0.00,,---,0.00,VWS V14.01,2013-01-16 02:36:00,
2013-01-15 20:41:00,18.3,1.0,29.74,SE,146,0.0,0.0,46,0.00,,---,0.00,VWS V14.01,2013-01-16 02:41:00,
2013-01-15 20:46:00,18.3,0.6,29.74,SSE,154,0.0,0.0,45,0.00,,---,0.00,VWS V14.01,2013-01-16 02:46:00,
2013-01-15 20:51:00,18.3,0.6,29.71,South,173,0.0,0.0,45,0.00,,---,0.00,VWS V14.01,2013-01-16 02:51:00,
2013-01-15 20:56:00,18.3,0.6,29.71,ESE,119,0.0,0.0,45,0.00,,---,0.00,VWS V14.01,2013-01-16 02:56:00,
2013-01-15 21:01:00,18.5,0.7,29.71,South,174,0.0,0.0,45,0.00,,---,0.00,VWS V14.01,2013-01-16 03:01:00,
2013-01-15 21:07:00,18.5,0.7,29.71,SSE,150,0.0,0.0,45,0.00,,---,0.00,VWS V14.01,2013-01-16 03:07:00,
2013-01-15 21:12:00,18.7,0.9,29.71,South,170,0.0,0.0,45,0.00,,---,0.00,VWS V14.01,2013-01-16 03:12:00,
2013-01-15 21:18:00,18.9,0.6,29.68,SSE,152,0.0,0.0,44,0.00,,---,0.00,VWS V14.01,2013-01-16 03:18:00,
2013-01-15 21:23:00,19.0,0.7,29.68,ESE,119,0.0,0.0,44,0.00,,---,0.00,VWS V14.01,2013-01-16 03:23:00,
2013-01-15 21:29:00,19.2,0.9,29.68,SE,131,0.0,0.0,44,0.00,,---,0.00,VWS V14.01,2013-01-16 03:29:00,
2013-01-15 21:34:00,19.0,0.7,29.68,SE,133,0.0,0.0,44,0.00,,---,0.00,VWS V14.01,2013-01-16 03:34:00,
2013-01-15 21:40:00,19.2,0.9,29.68,South,169,0.0,0.0,44,0.00,,---,0.00,VWS V14.01,2013-01-16 03:40:00,
2013-01-15 21:45:00,19.6,0.7,29.68,SSW,194,0.0,0.0,43,0.00,,---,0.00,VWS V14.01,2013-01-16 03:45:00,
2013-01-15 21:51:00,19.8,0.9,29.68,South,178,0.0,0.0,43,0.00,,---,0.00,VWS V14.01,2013-01-16 03:51:00,
2013-01-15 21:57:00,19.9,1.1,29.68,SSE,165,0.0,0.0,43,0.00,,---,0.00,VWS V14.01,2013-01-16 03:57:00,
2013-01-15 22:02:00,20.1,1.2,29.68,SSE,160,0.0,0.0,43,0.00,,---,0.00,VWS V14.01,2013-01-16 04:02:00,
2013-01-15 22:07:00,20.3,1.4,29.68,South,181,0.0,0.0,43,0.00,,---,0.00,VWS V14.01,2013-01-16 04:07:00,
2013-01-15 22:12:00,20.3,1.4,29.68,South,173,0.0,0.0,43,0.00,,---,0.00,VWS V14.01,2013-01-16 04:12:00,
2013-01-15 22:18:00,20.3,1.4,29.68,SSE,158,0.0,0.0,43,0.00,,---,0.00,VWS V14.01,2013-01-16 04:18:00,
2013-01-15 22:23:00,20.5,1.5,29.68,SSE,147,0.0,0.0,43,0.00,,---,0.00,VWS V14.01,2013-01-16 04:23:00,
2013-01-15 22:29:00,20.5,1.5,29.68,South,169,0.0,0.0,43,0.00,,---,0.00,VWS V14.01,2013-01-16 04:29:00,
2013-01-15 22:34:00,20.7,1.7,29.65,SE,130,0.0,0.0,43,0.00,,---,0.00,VWS V14.01,2013-01-16 04:34:00,
2013-01-15 22:40:00,20.7,1.2,29.65,SSE,157,0.0,0.0,42,0.00,,---,0.00,VWS V14.01,2013-01-16 04:40:00,
2013-01-15 22:45:00,20.7,1.7,29.65,South,180,0.0,0.0,43,0.00,,---,0.00,VWS V14.01,2013-01-16 04:45:00,
2013-01-15 22:51:00,20.8,1.4,29.62,SSE,153,0.0,0.0,42,0.00,,---,0.00,VWS V14.01,2013-01-16 04:51:00,
2013-01-15 22:57:00,21.0,1.5,29.62,SSW,211,0.0,0.0,42,0.00,,---,0.00,VWS V14.01,2013-01-16 04:57:00,
2013-01-15 23:00:00,21.0,1.5,29.62,ESE,122,0.0,0.0,42,0.00,,---,0.00,VWS V14.01,2013-01-16 05:00:00,
2013-01-15 23:02:00,21.0,1.5,29.62,SSE,152,0.0,0.0,42,0.00,,---,0.00,VWS V14.01,2013-01-16 05:02:00,
2013-01-15 23:07:00,21.0,1.5,29.62,SE,144,0.0,0.0,42,0.00,,---,0.00,VWS V14.01,2013-01-16 05:07:00,
2013-01-15 23:08:00,21.0,1.5,29.62,SE,132,0.0,0.0,42,0.00,,---,0.00,VWS V14.01,2013-01-16 05:08:00,
2013-01-15 23:13:00,21.2,2.2,29.62,SE,137,0.0,0.0,43,0.00,,---,0.00,VWS V14.01,2013-01-16 05:13:00,
2013-01-15 23:18:00,21.0,2.0,29.59,South,177,0.0,0.0,43,0.00,,---,0.00,VWS V14.01,2013-01-16 05:18:00,
2013-01-15 23:23:00,21.0,2.0,29.59,ESE,109,0.0,0.0,43,0.00,,---,0.00,VWS V14.01,2013-01-16 05:23:00,
2013-01-15 23:28:00,21.0,2.0,29.59,SE,137,0.0,0.0,43,0.00,,---,0.00,VWS V14.01,2013-01-16 05:28:00,
2013-01-15 23:33:00,21.2,2.2,29.56,SSW,197,0.0,0.0,43,0.00,,---,0.00,VWS V14.01,2013-01-16 05:33:00,
2013-01-15 23:38:00,21.2,2.2,29.56,South,169,0.0,0.0,43,0.00,,---,0.00,VWS V14.01,2013-01-16 05:38:00,
2013-01-15 23:43:00,21.2,2.2,29.56,South,179,0.0,0.0,43,0.00,,---,0.00,VWS V14.01,2013-01-16 05:43:00,
2013-01-15 23:48:00,21.2,2.2,29.56,NE,55,0.0,0.0,43,0.00,,---,0.00,VWS V14.01,2013-01-16 05:48:00,
2013-01-15 23:53:00,21.4,1.9,29.56,SE,142,0.0,0.0,42,0.00,,---,0.00,VWS V14.01,2013-01-16 05:53:00,
2013-01-15 23:58:00,21.4,2.4,29.56,SE,138,0.0,0.0,43,0.00,,---,0.00,VWS V14.01,2013-01-16 05:58:00,